createdAt,value
2018-01-05T00:02:15.574Z,8.10
2018-01-05T00:06:58.731Z,8.20
2018-01-05T00:11:42.757Z,8.20
2018-01-05T00:16:25.416Z,8.20
2018-01-05T00:21:09.061Z,8.10
2018-01-05T00:25:51.703Z,8.10
2018-01-05T00:30:34.388Z,8.10
2018-01-05T00:35:16.972Z,8.20
2018-01-05T00:40:00.944Z,8.20
2018-01-05T00:44:44.381Z,8.10
2018-01-05T00:49:27.636Z,8.10
2018-01-05T00:54:10.233Z,8.20
2018-01-05T00:58:52.870Z,8.20
2018-01-05T01:03:35.582Z,8.10
2018-01-05T01:08:18.109Z,8.00
2018-01-05T01:13:03.520Z,7.90
2018-01-05T01:17:46.867Z,7.90
2018-01-05T01:22:29.416Z,7.90
2018-01-05T01:27:11.987Z,8.00
2018-01-05T01:31:54.838Z,7.80
2018-01-05T01:36:37.521Z,7.70
2018-01-05T01:41:20.126Z,7.60
2018-01-05T01:46:05.639Z,7.60
2018-01-05T01:50:48.200Z,7.40
2018-01-05T01:55:30.791Z,7.50
2018-01-05T02:00:13.444Z,7.40
2018-01-05T02:04:56.184Z,7.40
2018-01-05T02:09:38.775Z,7.40
2018-01-05T02:14:21.341Z,7.40
2018-01-05T02:19:07.037Z,7.30
2018-01-05T02:23:49.656Z,7.30
2018-01-05T02:28:32.211Z,7.20
2018-01-05T02:33:14.903Z,7.10
2018-01-05T02:37:57.563Z,7.10
2018-01-05T02:42:41.026Z,7.10
2018-01-05T02:47:23.675Z,7.10
2018-01-05T02:52:06.343Z,6.90
2018-01-05T02:56:48.887Z,6.90
2018-01-05T03:01:32.853Z,6.80
2018-01-05T03:06:16.274Z,6.70
2018-01-05T03:10:58.980Z,6.70
2018-01-05T03:15:41.584Z,6.60
2018-01-05T03:20:24.142Z,6.60
2018-01-05T03:25:06.820Z,6.50
2018-01-05T03:29:49.429Z,6.50
2018-01-05T03:34:32.134Z,6.60
2018-01-05T03:39:14.759Z,6.50
2018-01-05T03:43:57.380Z,6.40
2018-01-05T03:48:40.020Z,6.20
2018-01-05T03:53:22.673Z,6.20
2018-01-05T03:58:05.404Z,6.20
2018-01-05T04:02:48.048Z,6.20
2018-01-05T04:07:31.209Z,6.20
2018-01-05T04:12:13.901Z,6.10
2018-01-05T04:16:56.752Z,6.00
2018-01-05T04:21:39.424Z,6.00
2018-01-05T04:26:22.284Z,6.00
2018-01-05T04:31:05.907Z,6.00
2018-01-05T04:35:48.472Z,5.90
2018-01-05T04:40:31.133Z,5.90
2018-01-05T04:45:13.860Z,5.90
2018-01-05T04:49:56.463Z,5.90
2018-01-05T04:54:39.067Z,6.10
2018-01-05T04:59:21.721Z,6.00
2018-01-05T05:04:07.220Z,6.00
2018-01-05T05:08:49.859Z,6.00
2018-01-05T05:13:32.459Z,6.10
2018-01-05T05:18:15.144Z,6.10
2018-01-05T05:22:58.627Z,6.30
2018-01-05T05:27:41.144Z,6.30
2018-01-05T05:32:23.923Z,6.30
2018-01-05T05:37:06.611Z,6.30
2018-01-05T05:41:49.196Z,6.30
2018-01-05T05:46:31.835Z,6.10
2018-01-05T05:51:14.405Z,6.10
2018-01-05T05:55:56.980Z,6.10
2018-01-05T06:00:39.938Z,6.20
2018-01-05T06:05:22.520Z,6.10
2018-01-05T06:10:06.044Z,6.10
2018-01-05T06:14:48.544Z,6.10
2018-01-05T06:19:31.069Z,6.20
2018-01-05T06:24:13.773Z,6.20
2018-01-05T06:28:56.335Z,6.30
2018-01-05T06:33:38.958Z,6.30
2018-01-05T06:38:21.567Z,6.40
2018-01-05T06:43:07.017Z,6.40
2018-01-05T06:47:49.712Z,6.40
2018-01-05T06:52:32.311Z,6.40
2018-01-05T06:57:14.779Z,6.40
2018-01-05T07:01:57.378Z,6.30
2018-01-05T07:06:39.965Z,6.20
2018-01-05T07:11:23.280Z,6.30
2018-01-05T07:16:05.850Z,6.30
2018-01-05T07:20:48.425Z,6.40
2018-01-05T07:25:31.052Z,6.50
2018-01-05T07:30:13.653Z,6.60
2018-01-05T07:34:56.348Z,6.60
2018-01-05T07:39:39.001Z,6.70
2018-01-05T07:44:21.604Z,6.70
2018-01-05T07:49:07.826Z,6.70
2018-01-05T07:53:50.316Z,6.80
2018-01-05T07:58:32.875Z,6.90
2018-01-05T08:03:15.520Z,6.90
2018-01-05T08:07:58.072Z,7.10
2018-01-05T08:12:40.616Z,7.20
2018-01-05T08:17:23.144Z,7.40
2018-01-05T08:22:05.716Z,7.50
2018-01-05T08:26:48.255Z,7.50
2018-01-05T08:31:30.931Z,7.50
2018-01-05T08:36:13.470Z,7.60
2018-01-05T08:40:56.874Z,7.70
2018-01-05T08:45:39.444Z,7.70
2018-01-05T08:50:21.960Z,7.80
2018-01-05T08:55:05.534Z,8.10
2018-01-05T08:59:49.121Z,8.10
2018-01-05T09:04:31.709Z,8.10
2018-01-05T09:09:14.256Z,8.20
2018-01-05T09:13:56.804Z,8.50
2018-01-05T09:18:39.401Z,8.40
2018-01-05T09:23:21.951Z,8.30
2018-01-05T09:28:05.628Z,8.30
2018-01-05T09:32:48.241Z,8.20
2018-01-05T09:37:31.557Z,8.10
2018-01-05T09:42:14.067Z,8.10
2018-01-05T09:46:56.585Z,8.30
2018-01-05T09:51:39.084Z,8.50
2018-01-05T09:56:22.332Z,8.80
2018-01-05T10:01:06.695Z,8.80
2018-01-05T10:05:49.207Z,8.90
2018-01-05T10:10:32.629Z,8.90
2018-01-05T10:15:15.108Z,8.90
2018-01-05T10:19:57.604Z,8.90
2018-01-05T10:24:40.971Z,9.00
2018-01-05T10:29:24.931Z,9.00
2018-01-05T10:34:07.581Z,9.00
2018-01-05T10:38:50.189Z,9.00
2018-01-05T10:43:32.812Z,9.10
2018-01-05T10:48:15.327Z,9.20
2018-01-05T10:52:57.924Z,9.20
2018-01-05T10:57:40.432Z,9.20
2018-01-05T11:02:23.758Z,9.30
2018-01-05T11:07:07.061Z,9.30
2018-01-05T11:11:50.457Z,9.40
2018-01-05T11:16:33.097Z,9.40
2018-01-05T11:21:15.569Z,9.40
2018-01-05T11:25:58.089Z,9.50
2018-01-05T11:30:40.730Z,9.50
2018-01-05T11:35:23.256Z,9.60
2018-01-05T11:40:05.836Z,9.70
2018-01-05T11:44:48.464Z,10.00
2018-01-05T11:49:31.348Z,10.10
2018-01-05T11:54:13.903Z,9.90
2018-01-05T11:58:56.448Z,9.70
2018-01-05T12:03:39.068Z,9.50
2018-01-05T12:08:21.673Z,9.40
2018-01-05T12:13:07.108Z,9.40
2018-01-05T12:17:49.732Z,9.40
2018-01-05T12:22:32.382Z,9.30
2018-01-05T12:27:15.023Z,9.20
2018-01-05T12:31:57.610Z,9.20
2018-01-05T12:36:40.098Z,9.00
2018-01-05T12:41:22.741Z,9.00
2018-01-05T12:46:06.948Z,8.90
2018-01-05T12:50:49.517Z,8.90
2018-01-05T12:55:32.849Z,8.80
2018-01-05T13:00:16.285Z,8.80
2018-01-05T13:04:59.170Z,8.70
2018-01-05T13:09:41.890Z,8.70
2018-01-05T13:14:25.303Z,8.60
2018-01-05T13:19:07.892Z,8.60
2018-01-05T13:23:51.304Z,8.50
2018-01-05T13:28:33.912Z,8.50
2018-01-05T13:33:17.360Z,8.40
2018-01-05T13:38:00.692Z,8.40
2018-01-05T13:42:45.969Z,8.40
2018-01-05T13:47:28.982Z,8.30
2018-01-05T13:52:12.387Z,8.30
2018-01-05T13:56:55.023Z,8.30
2018-01-05T14:01:41.071Z,8.20
2018-01-05T14:06:23.738Z,8.10
2018-01-05T14:11:06.443Z,8.10
2018-01-05T14:15:49.339Z,7.90
2018-01-05T14:20:32.097Z,7.80
2018-01-05T14:25:14.675Z,7.70
2018-01-05T14:29:57.231Z,7.80
2018-01-05T14:34:39.908Z,7.70
2018-01-05T14:39:23.292Z,7.60
2018-01-05T14:44:06.104Z,7.60
2018-01-05T14:48:49.628Z,7.50
2018-01-05T14:53:32.473Z,7.60
2018-01-05T14:58:15.158Z,7.60
2018-01-05T15:03:05.422Z,7.50
2018-01-05T15:07:48.160Z,7.50
2018-01-05T15:12:35.508Z,7.50
2018-01-05T15:17:20.700Z,7.40
2018-01-05T15:22:06.099Z,7.40
2018-01-05T15:26:51.527Z,7.40
2018-01-05T15:31:34.378Z,7.40
2018-01-05T15:36:22.965Z,7.40
2018-01-05T15:41:07.016Z,7.30
2018-01-05T15:45:56.769Z,7.30
2018-01-05T15:50:42.183Z,7.30
2018-01-05T15:55:28.117Z,7.30
2018-01-05T16:00:11.015Z,7.30
2018-01-05T16:04:53.726Z,7.30
2018-01-05T16:09:36.378Z,7.30
2018-01-05T16:14:19.035Z,7.40
2018-01-05T16:19:04.490Z,7.30
2018-01-05T16:23:47.448Z,7.30
2018-01-05T16:28:30.125Z,7.30
2018-01-05T16:33:14.083Z,7.30
2018-01-05T16:38:00.079Z,7.30
2018-01-05T16:42:42.771Z,7.20
2018-01-05T16:47:25.313Z,7.10
2018-01-05T16:52:08.286Z,7.10
2018-01-05T16:56:54.278Z,7.10
2018-01-05T17:01:40.026Z,7.00
2018-01-05T17:06:24.229Z,6.80
2018-01-05T17:11:09.672Z,6.90
2018-01-05T17:15:53.662Z,7.10
2018-01-05T17:20:38.000Z,7.10
2018-01-05T17:25:21.474Z,7.10
2018-01-05T17:30:05.957Z,7.10
2018-01-05T17:34:49.649Z,7.20
2018-01-05T17:39:32.631Z,7.10
2018-01-05T17:44:16.096Z,7.20
2018-01-05T17:48:59.050Z,7.20
2018-01-05T17:53:41.849Z,7.20
2018-01-05T17:58:24.639Z,7.20
2018-01-05T18:03:11.569Z,7.30
2018-01-05T18:07:55.210Z,7.30
2018-01-05T18:12:44.831Z,7.30
2018-01-05T18:17:28.760Z,7.20
2018-01-05T18:22:11.665Z,7.10
2018-01-05T18:26:55.055Z,7.10
2018-01-05T18:31:38.012Z,7.10
2018-01-05T18:36:20.679Z,7.00
2018-01-05T18:41:05.554Z,7.00
2018-01-05T18:45:48.188Z,6.80
2018-01-05T18:50:32.140Z,6.70
2018-01-05T18:55:14.776Z,6.70
2018-01-05T18:59:58.154Z,6.50
2018-01-05T19:04:40.747Z,6.50
2018-01-05T19:09:23.323Z,6.60
2018-01-05T19:14:06.154Z,6.50
2018-01-05T19:18:48.792Z,6.40
2018-01-05T19:23:31.352Z,6.40
2018-01-05T19:28:13.957Z,6.40
2018-01-05T19:32:56.712Z,6.30
2018-01-05T19:37:39.305Z,6.20
2018-01-05T19:42:23.062Z,6.20
2018-01-05T19:47:06.038Z,6.10
2018-01-05T19:51:49.239Z,6.10
2018-01-05T19:56:31.960Z,6.10
2018-01-05T20:01:17.300Z,6.10
2018-01-05T20:10:56.918Z,6.20
2018-01-05T20:15:40.888Z,6.10
2018-01-05T20:20:23.594Z,6.10
2018-01-05T20:25:06.403Z,6.10
2018-01-05T20:29:49.003Z,6.10
2018-01-05T20:34:31.827Z,6.10
2018-01-05T20:39:14.412Z,6.20
2018-01-05T20:43:57.940Z,6.10
2018-01-05T20:48:42.323Z,6.00
2018-01-05T20:53:25.486Z,5.80
2018-01-05T20:58:08.261Z,5.70
2018-01-05T21:02:52.510Z,5.60
2018-01-05T21:07:35.338Z,5.50
2018-01-05T21:12:19.162Z,5.20
2018-01-05T21:17:05.891Z,5.20
2018-01-05T21:21:49.209Z,5.00
2018-01-05T21:26:32.716Z,5.00
2018-01-05T21:31:15.450Z,4.90
2018-01-05T21:35:59.101Z,5.20
2018-01-05T21:40:41.755Z,5.20
2018-01-05T21:45:24.452Z,5.20
2018-01-05T21:50:07.275Z,5.30
2018-01-05T21:54:49.991Z,5.20
2018-01-05T21:59:32.653Z,5.30
2018-01-05T22:04:15.424Z,5.40
2018-01-05T22:08:58.672Z,5.40
2018-01-05T22:13:41.399Z,5.50
2018-01-05T22:18:24.777Z,5.60
2018-01-05T22:23:07.661Z,5.60
2018-01-05T22:27:50.245Z,5.50
2018-01-05T22:32:35.047Z,5.60
2018-01-05T22:37:19.150Z,5.50
2018-01-05T22:42:07.039Z,5.40
2018-01-05T22:46:49.620Z,5.60
2018-01-05T22:51:32.253Z,5.70
2018-01-05T22:56:15.752Z,5.80
2018-01-05T23:00:58.366Z,5.70
2018-01-05T23:05:41.067Z,5.80
2018-01-05T23:10:24.421Z,5.80
2018-01-05T23:15:07.536Z,5.80
2018-01-05T23:19:50.100Z,5.80
2018-01-05T23:24:32.888Z,5.80
2018-01-05T23:29:15.458Z,5.80
2018-01-05T23:33:58.069Z,5.90
2018-01-05T23:38:40.709Z,6.00
2018-01-05T23:43:23.253Z,6.00
2018-01-05T23:48:07.066Z,6.00
2018-01-05T23:52:50.351Z,5.90
2018-01-05T23:57:32.908Z,5.90
